sensor_id;sensor_type;location;lat;lon;timestamp;P1;durP1;ratioP1;P2;durP2;ratioP2
7324;SDS011;3703;48.016;7.802;2023-01-30T00:00:57;13.50;;;8.52;;
7324;SDS011;3703;48.016;7.802;2023-01-30T00:03:46;16.10;;;7.60;;
7324;SDS011;3703;48.016;7.802;2023-01-30T00:06:34;11.45;;;7.65;;
7324;SDS011;3703;48.016;7.802;2023-01-30T00:09:23;11.65;;;7.13;;
7324;SDS011;3703;48.016;7.802;2023-01-30T00:12:11;13.45;;;7.38;;
7324;SDS011;3703;48.016;7.802;2023-01-30T00:14:59;11.38;;;6.50;;
7324;SDS011;3703;48.016;7.802;2023-01-30T00:17:47;11.55;;;7.00;;
7324;SDS011;3703;48.016;7.802;2023-01-30T00:20:34;13.73;;;6.35;;
7324;SDS011;3703;48.016;7.802;2023-01-30T00:23:23;13.32;;;7.45;;
7324;SDS011;3703;48.016;7.802;2023-01-30T00:26:14;11.45;;;7.38;;
7324;SDS011;3703;48.016;7.802;2023-01-30T00:29:01;12.02;;;7.60;;
7324;SDS011;3703;48.016;7.802;2023-01-30T00:31:49;11.18;;;6.53;;
7324;SDS011;3703;48.016;7.802;2023-01-30T00:34:37;13.55;;;7.00;;
7324;SDS011;3703;48.016;7.802;2023-01-30T00:37:24;12.00;;;7.45;;
7324;SDS011;3703;48.016;7.802;2023-01-30T00:40:12;12.88;;;6.88;;
7324;SDS011;3703;48.016;7.802;2023-01-30T00:43:02;10.85;;;7.05;;
7324;SDS011;3703;48.016;7.802;2023-01-30T00:46:09;12.50;;;6.88;;
7324;SDS011;3703;48.016;7.802;2023-01-30T00:49:19;13.23;;;6.22;;
7324;SDS011;3703;48.016;7.802;2023-01-30T00:52:07;9.68;;;7.13;;
7324;SDS011;3703;48.016;7.802;2023-01-30T00:54:55;14.27;;;6.88;;
7324;SDS011;3703;48.016;7.802;2023-01-30T00:57:43;13.90;;;6.88;;
7324;SDS011;3703;48.016;7.802;2023-01-30T01:00:32;12.38;;;6.78;;
7324;SDS011;3703;48.016;7.802;2023-01-30T01:03:20;9.23;;;6.10;;
7324;SDS011;3703;48.016;7.802;2023-01-30T01:06:08;11.25;;;6.20;;
7324;SDS011;3703;48.016;7.802;2023-01-30T01:08:56;10.52;;;6.43;;
7324;SDS011;3703;48.016;7.802;2023-01-30T01:11:44;10.80;;;5.50;;
7324;SDS011;3703;48.016;7.802;2023-01-30T01:14:32;11.43;;;5.85;;
7324;SDS011;3703;48.016;7.802;2023-01-30T01:17:21;11.35;;;5.95;;
7324;SDS011;3703;48.016;7.802;2023-01-30T01:20:09;10.80;;;6.32;;
7324;SDS011;3703;48.016;7.802;2023-01-30T01:22:57;10.43;;;5.60;;
7324;SDS011;3703;48.016;7.802;2023-01-30T01:25:45;12.57;;;6.37;;
7324;SDS011;3703;48.016;7.802;2023-01-30T01:28:33;12.13;;;5.80;;
7324;SDS011;3703;48.016;7.802;2023-01-30T01:31:21;16.03;;;6.30;;
7324;SDS011;3703;48.016;7.802;2023-01-30T01:34:11;10.17;;;5.87;;
7324;SDS011;3703;48.016;7.802;2023-01-30T01:36:58;9.63;;;5.43;;
7324;SDS011;3703;48.016;7.802;2023-01-30T01:39:46;11.13;;;5.80;;
7324;SDS011;3703;48.016;7.802;2023-01-30T01:42:52;9.73;;;5.77;;
7324;SDS011;3703;48.016;7.802;2023-01-30T01:45:40;12.37;;;5.50;;
7324;SDS011;3703;48.016;7.802;2023-01-30T01:52:31;12.20;;;5.80;;
7324;SDS011;3703;48.016;7.802;2023-01-30T01:55:19;12.63;;;6.20;;
7324;SDS011;3703;48.016;7.802;2023-01-30T01:58:09;9.20;;;5.50;;
7324;SDS011;3703;48.016;7.802;2023-01-30T02:01:01;12.43;;;6.17;;
7324;SDS011;3703;48.016;7.802;2023-01-30T02:03:51;12.70;;;6.40;;
7324;SDS011;3703;48.016;7.802;2023-01-30T02:06:44;13.53;;;6.53;;
7324;SDS011;3703;48.016;7.802;2023-01-30T02:09:33;12.43;;;6.27;;
7324;SDS011;3703;48.016;7.802;2023-01-30T02:12:21;13.13;;;6.43;;
7324;SDS011;3703;48.016;7.802;2023-01-30T02:15:09;13.87;;;7.20;;
7324;SDS011;3703;48.016;7.802;2023-01-30T02:17:57;11.13;;;6.43;;
7324;SDS011;3703;48.016;7.802;2023-01-30T02:20:49;13.77;;;7.53;;
7324;SDS011;3703;48.016;7.802;2023-01-30T02:31:00;13.47;;;6.83;;
7324;SDS011;3703;48.016;7.802;2023-01-30T02:34:13;14.90;;;7.30;;
7324;SDS011;3703;48.016;7.802;2023-01-30T02:37:16;12.10;;;6.57;;
7324;SDS011;3703;48.016;7.802;2023-01-30T02:40:17;14.77;;;7.13;;
7324;SDS011;3703;48.016;7.802;2023-01-30T02:43:26;12.85;;;6.03;;
7324;SDS011;3703;48.016;7.802;2023-01-30T02:46:22;12.07;;;6.50;;
7324;SDS011;3703;48.016;7.802;2023-01-30T02:49:20;12.93;;;6.80;;
7324;SDS011;3703;48.016;7.802;2023-01-30T02:52:13;11.60;;;6.80;;
7324;SDS011;3703;48.016;7.802;2023-01-30T02:55:05;11.98;;;6.45;;
7324;SDS011;3703;48.016;7.802;2023-01-30T02:57:55;15.10;;;8.27;;
7324;SDS011;3703;48.016;7.802;2023-01-30T03:00:52;14.20;;;6.87;;
7324;SDS011;3703;48.016;7.802;2023-01-30T03:04:04;12.43;;;6.60;;
7324;SDS011;3703;48.016;7.802;2023-01-30T03:07:24;12.18;;;6.53;;
7324;SDS011;3703;48.016;7.802;2023-01-30T03:10:27;12.88;;;6.43;;
7324;SDS011;3703;48.016;7.802;2023-01-30T03:13:24;10.98;;;6.38;;
7324;SDS011;3703;48.016;7.802;2023-01-30T03:16:24;11.10;;;6.70;;
7324;SDS011;3703;48.016;7.802;2023-01-30T03:19:17;14.20;;;7.55;;
7324;SDS011;3703;48.016;7.802;2023-01-30T03:22:05;11.25;;;6.85;;
7324;SDS011;3703;48.016;7.802;2023-01-30T03:24:53;11.95;;;7.70;;
7324;SDS011;3703;48.016;7.802;2023-01-30T03:27:42;16.13;;;7.55;;
7324;SDS011;3703;48.016;7.802;2023-01-30T03:30:30;12.93;;;6.55;;
7324;SDS011;3703;48.016;7.802;2023-01-30T03:33:18;12.55;;;7.30;;
7324;SDS011;3703;48.016;7.802;2023-01-30T03:36:07;12.25;;;6.93;;
7324;SDS011;3703;48.016;7.802;2023-01-30T03:38:56;11.38;;;6.35;;
7324;SDS011;3703;48.016;7.802;2023-01-30T03:41:44;10.23;;;6.20;;
7324;SDS011;3703;48.016;7.802;2023-01-30T03:44:32;11.43;;;6.68;;
7324;SDS011;3703;48.016;7.802;2023-01-30T03:47:20;10.67;;;5.13;;
7324;SDS011;3703;48.016;7.802;2023-01-30T03:50:08;12.73;;;6.67;;
7324;SDS011;3703;48.016;7.802;2023-01-30T03:52:58;8.13;;;4.63;;
7324;SDS011;3703;48.016;7.802;2023-01-30T03:55:45;10.97;;;6.20;;
7324;SDS011;3703;48.016;7.802;2023-01-30T04:01:14;11.90;;;6.13;;
7324;SDS011;3703;48.016;7.802;2023-01-30T04:04:01;12.48;;;6.80;;
7324;SDS011;3703;48.016;7.802;2023-01-30T04:24:43;11.27;;;5.93;;
7324;SDS011;3703;48.016;7.802;2023-01-30T04:27:30;11.17;;;6.10;;
7324;SDS011;3703;48.016;7.802;2023-01-30T04:30:18;10.17;;;6.30;;
7324;SDS011;3703;48.016;7.802;2023-01-30T04:33:06;9.02;;;5.72;;
7324;SDS011;3703;48.016;7.802;2023-01-30T04:35:54;10.97;;;6.67;;
7324;SDS011;3703;48.016;7.802;2023-01-30T04:44:22;8.87;;;5.47;;
7324;SDS011;3703;48.016;7.802;2023-01-30T04:47:09;10.13;;;5.57;;
7324;SDS011;3703;48.016;7.802;2023-01-30T04:49:57;10.80;;;5.70;;
7324;SDS011;3703;48.016;7.802;2023-01-30T04:52:45;10.30;;;5.77;;
7324;SDS011;3703;48.016;7.802;2023-01-30T04:55:33;8.13;;;4.27;;
7324;SDS011;3703;48.016;7.802;2023-01-30T05:08:59;9.13;;;6.07;;
7324;SDS011;3703;48.016;7.802;2023-01-30T05:11:47;11.13;;;6.43;;
7324;SDS011;3703;48.016;7.802;2023-01-30T05:14:34;9.73;;;5.67;;
7324;SDS011;3703;48.016;7.802;2023-01-30T05:17:25;9.73;;;5.63;;
7324;SDS011;3703;48.016;7.802;2023-01-30T05:20:13;12.65;;;6.03;;
7324;SDS011;3703;48.016;7.802;2023-01-30T05:23:01;9.38;;;5.80;;
7324;SDS011;3703;48.016;7.802;2023-01-30T05:25:50;10.57;;;5.53;;
7324;SDS011;3703;48.016;7.802;2023-01-30T05:28:38;7.00;;;4.65;;
7324;SDS011;3703;48.016;7.802;2023-01-30T05:31:26;10.90;;;6.20;;
7324;SDS011;3703;48.016;7.802;2023-01-30T05:34:14;10.93;;;6.03;;
7324;SDS011;3703;48.016;7.802;2023-01-30T05:37:01;12.50;;;7.30;;
7324;SDS011;3703;48.016;7.802;2023-01-30T05:39:49;14.57;;;6.60;;
7324;SDS011;3703;48.016;7.802;2023-01-30T05:42:38;12.53;;;6.23;;
7324;SDS011;3703;48.016;7.802;2023-01-30T05:45:26;11.43;;;6.03;;
7324;SDS011;3703;48.016;7.802;2023-01-30T05:48:14;12.75;;;6.63;;
7324;SDS011;3703;48.016;7.802;2023-01-30T05:51:01;10.40;;;5.80;;
7324;SDS011;3703;48.016;7.802;2023-01-30T05:53:49;10.53;;;5.10;;
7324;SDS011;3703;48.016;7.802;2023-01-30T05:56:37;10.00;;;6.03;;
7324;SDS011;3703;48.016;7.802;2023-01-30T05:59:26;11.47;;;6.50;;
7324;SDS011;3703;48.016;7.802;2023-01-30T06:02:13;9.52;;;5.30;;
7324;SDS011;3703;48.016;7.802;2023-01-30T06:05:01;11.13;;;5.93;;
7324;SDS011;3703;48.016;7.802;2023-01-30T06:07:49;11.18;;;5.93;;
7324;SDS011;3703;48.016;7.802;2023-01-30T06:10:37;10.60;;;5.90;;
7324;SDS011;3703;48.016;7.802;2023-01-30T06:28:44;11.97;;;6.87;;
7324;SDS011;3703;48.016;7.802;2023-01-30T06:31:31;9.77;;;5.97;;
7324;SDS011;3703;48.016;7.802;2023-01-30T06:34:19;10.23;;;5.87;;
7324;SDS011;3703;48.016;7.802;2023-01-30T06:37:06;8.80;;;4.67;;
7324;SDS011;3703;48.016;7.802;2023-01-30T06:39:54;14.87;;;9.03;;
7324;SDS011;3703;48.016;7.802;2023-01-30T06:42:43;10.97;;;5.90;;
7324;SDS011;3703;48.016;7.802;2023-01-30T06:45:32;11.83;;;6.67;;
7324;SDS011;3703;48.016;7.802;2023-01-30T06:48:20;10.90;;;6.07;;
7324;SDS011;3703;48.016;7.802;2023-01-30T06:51:07;11.43;;;6.20;;
7324;SDS011;3703;48.016;7.802;2023-01-30T06:53:55;10.63;;;5.67;;
7324;SDS011;3703;48.016;7.802;2023-01-30T06:56:43;11.03;;;5.73;;
7324;SDS011;3703;48.016;7.802;2023-01-30T06:59:31;9.13;;;5.60;;
7324;SDS011;3703;48.016;7.802;2023-01-30T07:04:50;11.52;;;5.82;;
7324;SDS011;3703;48.016;7.802;2023-01-30T07:07:38;7.27;;;5.33;;
7324;SDS011;3703;48.016;7.802;2023-01-30T07:10:25;10.83;;;6.17;;
7324;SDS011;3703;48.016;7.802;2023-01-30T07:13:16;10.47;;;6.07;;
7324;SDS011;3703;48.016;7.802;2023-01-30T07:16:04;11.70;;;7.00;;
7324;SDS011;3703;48.016;7.802;2023-01-30T07:18:52;10.33;;;6.27;;
7324;SDS011;3703;48.016;7.802;2023-01-30T07:21:43;8.77;;;5.20;;
7324;SDS011;3703;48.016;7.802;2023-01-30T07:24:30;6.03;;;4.83;;
7324;SDS011;3703;48.016;7.802;2023-01-30T07:27:18;11.40;;;5.80;;
7324;SDS011;3703;48.016;7.802;2023-01-30T07:30:06;10.70;;;5.53;;
7324;SDS011;3703;48.016;7.802;2023-01-30T07:32:55;13.07;;;6.30;;
7324;SDS011;3703;48.016;7.802;2023-01-30T07:35:44;15.57;;;8.55;;
7324;SDS011;3703;48.016;7.802;2023-01-30T07:38:33;9.43;;;5.73;;
7324;SDS011;3703;48.016;7.802;2023-01-30T07:41:20;11.93;;;7.57;;
7324;SDS011;3703;48.016;7.802;2023-01-30T07:44:08;12.73;;;6.90;;
7324;SDS011;3703;48.016;7.802;2023-01-30T07:46:56;9.50;;;6.23;;
7324;SDS011;3703;48.016;7.802;2023-01-30T07:49:44;15.40;;;8.30;;
7324;SDS011;3703;48.016;7.802;2023-01-30T07:52:31;10.17;;;6.73;;
7324;SDS011;3703;48.016;7.802;2023-01-30T07:55:20;14.27;;;7.30;;
7324;SDS011;3703;48.016;7.802;2023-01-30T07:58:09;11.47;;;6.20;;
7324;SDS011;3703;48.016;7.802;2023-01-30T08:00:59;12.43;;;5.97;;
7324;SDS011;3703;48.016;7.802;2023-01-30T08:03:47;11.93;;;6.40;;
7324;SDS011;3703;48.016;7.802;2023-01-30T08:06:34;15.97;;;7.97;;
7324;SDS011;3703;48.016;7.802;2023-01-30T08:09:23;6.47;;;4.00;;
7324;SDS011;3703;48.016;7.802;2023-01-30T08:12:13;14.23;;;5.13;;
7324;SDS011;3703;48.016;7.802;2023-01-30T08:15:00;8.63;;;4.60;;
7324;SDS011;3703;48.016;7.802;2023-01-30T08:17:54;8.03;;;6.03;;
7324;SDS011;3703;48.016;7.802;2023-01-30T08:20:43;11.13;;;5.77;;
7324;SDS011;3703;48.016;7.802;2023-01-30T08:23:33;9.53;;;5.07;;
7324;SDS011;3703;48.016;7.802;2023-01-30T08:26:26;9.83;;;5.83;;
7324;SDS011;3703;48.016;7.802;2023-01-30T08:29:24;10.47;;;6.27;;
7324;SDS011;3703;48.016;7.802;2023-01-30T08:32:19;13.53;;;7.03;;
7324;SDS011;3703;48.016;7.802;2023-01-30T08:35:09;15.53;;;7.63;;
7324;SDS011;3703;48.016;7.802;2023-01-30T08:37:58;12.67;;;6.23;;
7324;SDS011;3703;48.016;7.802;2023-01-30T08:40:50;13.17;;;7.30;;
7324;SDS011;3703;48.016;7.802;2023-01-30T08:43:42;10.73;;;6.00;;
7324;SDS011;3703;48.016;7.802;2023-01-30T08:46:38;9.43;;;6.40;;
7324;SDS011;3703;48.016;7.802;2023-01-30T08:49:28;15.13;;;7.00;;
7324;SDS011;3703;48.016;7.802;2023-01-30T08:52:16;14.90;;;7.17;;
7324;SDS011;3703;48.016;7.802;2023-01-30T08:55:05;13.70;;;6.17;;
7324;SDS011;3703;48.016;7.802;2023-01-30T08:57:54;10.60;;;6.27;;
7324;SDS011;3703;48.016;7.802;2023-01-30T09:00:43;12.87;;;6.10;;
7324;SDS011;3703;48.016;7.802;2023-01-30T09:03:33;14.10;;;6.63;;
7324;SDS011;3703;48.016;7.802;2023-01-30T09:06:22;7.77;;;4.13;;
7324;SDS011;3703;48.016;7.802;2023-01-30T09:09:11;12.37;;;7.23;;
7324;SDS011;3703;48.016;7.802;2023-01-30T09:11:59;9.57;;;5.07;;
7324;SDS011;3703;48.016;7.802;2023-01-30T09:14:47;9.67;;;6.47;;
7324;SDS011;3703;48.016;7.802;2023-01-30T09:17:37;12.47;;;5.27;;
7324;SDS011;3703;48.016;7.802;2023-01-30T09:20:27;10.70;;;5.63;;
7324;SDS011;3703;48.016;7.802;2023-01-30T09:23:15;10.10;;;6.10;;
7324;SDS011;3703;48.016;7.802;2023-01-30T09:26:04;10.57;;;6.00;;
7324;SDS011;3703;48.016;7.802;2023-01-30T09:28:53;12.80;;;6.10;;
7324;SDS011;3703;48.016;7.802;2023-01-30T09:31:42;10.10;;;5.77;;
7324;SDS011;3703;48.016;7.802;2023-01-30T09:34:30;13.23;;;6.63;;
7324;SDS011;3703;48.016;7.802;2023-01-30T09:37:21;8.97;;;5.20;;
7324;SDS011;3703;48.016;7.802;2023-01-30T09:40:12;10.47;;;5.43;;
7324;SDS011;3703;48.016;7.802;2023-01-30T09:43:31;13.93;;;6.27;;
7324;SDS011;3703;48.016;7.802;2023-01-30T09:46:29;12.13;;;5.33;;
7324;SDS011;3703;48.016;7.802;2023-01-30T09:49:24;13.00;;;6.70;;
7324;SDS011;3703;48.016;7.802;2023-01-30T09:52:19;11.70;;;6.37;;
7324;SDS011;3703;48.016;7.802;2023-01-30T09:55:17;10.97;;;5.73;;
7324;SDS011;3703;48.016;7.802;2023-01-30T09:58:12;13.70;;;7.53;;
7324;SDS011;3703;48.016;7.802;2023-01-30T10:01:04;14.13;;;7.33;;
7324;SDS011;3703;48.016;7.802;2023-01-30T10:04:10;15.10;;;5.20;;
7324;SDS011;3703;48.016;7.802;2023-01-30T10:07:05;9.33;;;5.63;;
7324;SDS011;3703;48.016;7.802;2023-01-30T10:10:01;10.40;;;5.70;;
7324;SDS011;3703;48.016;7.802;2023-01-30T10:12:53;11.27;;;6.07;;
7324;SDS011;3703;48.016;7.802;2023-01-30T10:15:47;12.93;;;6.87;;
7324;SDS011;3703;48.016;7.802;2023-01-30T10:18:41;14.33;;;6.60;;
7324;SDS011;3703;48.016;7.802;2023-01-30T10:21:41;11.47;;;6.03;;
7324;SDS011;3703;48.016;7.802;2023-01-30T10:24:37;6.87;;;4.57;;
7324;SDS011;3703;48.016;7.802;2023-01-30T10:27:31;11.87;;;6.37;;
7324;SDS011;3703;48.016;7.802;2023-01-30T10:30:20;12.47;;;6.37;;
7324;SDS011;3703;48.016;7.802;2023-01-30T10:33:09;10.93;;;5.40;;
7324;SDS011;3703;48.016;7.802;2023-01-30T10:36:05;12.83;;;5.73;;
7324;SDS011;3703;48.016;7.802;2023-01-30T10:38:56;15.37;;;7.73;;
7324;SDS011;3703;48.016;7.802;2023-01-30T10:41:50;14.17;;;7.73;;
7324;SDS011;3703;48.016;7.802;2023-01-30T10:44:44;13.37;;;7.87;;
7324;SDS011;3703;48.016;7.802;2023-01-30T10:47:37;22.53;;;9.00;;
7324;SDS011;3703;48.016;7.802;2023-01-30T10:50:35;19.20;;;9.67;;
7324;SDS011;3703;48.016;7.802;2023-01-30T10:53:34;11.70;;;7.23;;
7324;SDS011;3703;48.016;7.802;2023-01-30T10:56:29;13.17;;;7.10;;
7324;SDS011;3703;48.016;7.802;2023-01-30T10:59:23;14.27;;;7.90;;
7324;SDS011;3703;48.016;7.802;2023-01-30T11:02:31;10.57;;;5.83;;
7324;SDS011;3703;48.016;7.802;2023-01-30T11:05:33;12.10;;;7.73;;
7324;SDS011;3703;48.016;7.802;2023-01-30T11:08:28;10.70;;;6.77;;
7324;SDS011;3703;48.016;7.802;2023-01-30T11:11:22;13.70;;;7.50;;
7324;SDS011;3703;48.016;7.802;2023-01-30T11:14:14;10.60;;;5.63;;
7324;SDS011;3703;48.016;7.802;2023-01-30T11:17:02;12.30;;;7.33;;
7324;SDS011;3703;48.016;7.802;2023-01-30T11:19:54;13.97;;;7.77;;
7324;SDS011;3703;48.016;7.802;2023-01-30T11:22:44;10.17;;;6.17;;
7324;SDS011;3703;48.016;7.802;2023-01-30T11:25:45;14.00;;;7.20;;
7324;SDS011;3703;48.016;7.802;2023-01-30T11:28:38;10.83;;;6.00;;
7324;SDS011;3703;48.016;7.802;2023-01-30T11:31:28;16.03;;;6.57;;
7324;SDS011;3703;48.016;7.802;2023-01-30T11:34:17;10.60;;;6.03;;
7324;SDS011;3703;48.016;7.802;2023-01-30T11:37:21;13.07;;;6.43;;
7324;SDS011;3703;48.016;7.802;2023-01-30T11:40:17;11.40;;;6.97;;
7324;SDS011;3703;48.016;7.802;2023-01-30T11:43:11;12.33;;;6.40;;
7324;SDS011;3703;48.016;7.802;2023-01-30T11:46:00;12.17;;;7.03;;
7324;SDS011;3703;48.016;7.802;2023-01-30T11:48:48;9.23;;;4.40;;
7324;SDS011;3703;48.016;7.802;2023-01-30T11:51:41;13.00;;;7.57;;
7324;SDS011;3703;48.016;7.802;2023-01-30T11:54:33;15.30;;;7.27;;
7324;SDS011;3703;48.016;7.802;2023-01-30T11:57:24;12.23;;;6.80;;
7324;SDS011;3703;48.016;7.802;2023-01-30T12:00:13;12.37;;;6.83;;
7324;SDS011;3703;48.016;7.802;2023-01-30T12:03:10;13.20;;;7.33;;
7324;SDS011;3703;48.016;7.802;2023-01-30T12:06:01;8.33;;;5.17;;
7324;SDS011;3703;48.016;7.802;2023-01-30T12:08:50;11.73;;;7.50;;
7324;SDS011;3703;48.016;7.802;2023-01-30T12:11:41;9.63;;;6.30;;
7324;SDS011;3703;48.016;7.802;2023-01-30T12:14:34;10.90;;;6.93;;
7324;SDS011;3703;48.016;7.802;2023-01-30T12:17:26;14.93;;;6.33;;
7324;SDS011;3703;48.016;7.802;2023-01-30T12:20:24;14.60;;;8.67;;
7324;SDS011;3703;48.016;7.802;2023-01-30T12:23:25;12.60;;;6.30;;
7324;SDS011;3703;48.016;7.802;2023-01-30T12:26:20;9.70;;;6.10;;
7324;SDS011;3703;48.016;7.802;2023-01-30T12:29:20;13.60;;;7.50;;
7324;SDS011;3703;48.016;7.802;2023-01-30T12:32:13;9.23;;;5.77;;
7324;SDS011;3703;48.016;7.802;2023-01-30T12:35:12;8.60;;;6.27;;
7324;SDS011;3703;48.016;7.802;2023-01-30T12:38:02;7.80;;;5.23;;
7324;SDS011;3703;48.016;7.802;2023-01-30T12:41:23;9.63;;;6.10;;
7324;SDS011;3703;48.016;7.802;2023-01-30T12:44:39;8.27;;;4.27;;
7324;SDS011;3703;48.016;7.802;2023-01-30T12:47:56;8.17;;;5.17;;
7324;SDS011;3703;48.016;7.802;2023-01-30T12:51:09;10.20;;;5.73;;
7324;SDS011;3703;48.016;7.802;2023-01-30T12:54:06;10.23;;;6.07;;
7324;SDS011;3703;48.016;7.802;2023-01-30T12:57:10;9.23;;;5.67;;
7324;SDS011;3703;48.016;7.802;2023-01-30T13:00:08;8.90;;;6.33;;
7324;SDS011;3703;48.016;7.802;2023-01-30T13:03:16;14.67;;;7.83;;
7324;SDS011;3703;48.016;7.802;2023-01-30T13:06:15;22.97;;;9.90;;
7324;SDS011;3703;48.016;7.802;2023-01-30T13:09:22;39.03;;;12.33;;
7324;SDS011;3703;48.016;7.802;2023-01-30T13:12:33;11.00;;;6.43;;
7324;SDS011;3703;48.016;7.802;2023-01-30T13:15:29;7.10;;;5.47;;
7324;SDS011;3703;48.016;7.802;2023-01-30T13:18:22;8.47;;;4.60;;
7324;SDS011;3703;48.016;7.802;2023-01-30T13:21:15;8.13;;;5.83;;
7324;SDS011;3703;48.016;7.802;2023-01-30T13:24:11;10.13;;;6.17;;
7324;SDS011;3703;48.016;7.802;2023-01-30T13:27:04;9.23;;;5.00;;
7324;SDS011;3703;48.016;7.802;2023-01-30T13:30:00;10.83;;;5.83;;
7324;SDS011;3703;48.016;7.802;2023-01-30T13:32:53;8.97;;;5.47;;
7324;SDS011;3703;48.016;7.802;2023-01-30T13:35:45;8.60;;;5.63;;
7324;SDS011;3703;48.016;7.802;2023-01-30T13:38:38;8.53;;;5.37;;
7324;SDS011;3703;48.016;7.802;2023-01-30T13:41:32;8.67;;;5.10;;
7324;SDS011;3703;48.016;7.802;2023-01-30T13:44:26;8.43;;;5.07;;
7324;SDS011;3703;48.016;7.802;2023-01-30T13:47:22;8.23;;;5.33;;
7324;SDS011;3703;48.016;7.802;2023-01-30T13:50:25;8.43;;;4.67;;
7324;SDS011;3703;48.016;7.802;2023-01-30T13:53:29;8.50;;;5.90;;
7324;SDS011;3703;48.016;7.802;2023-01-30T13:56:27;10.07;;;5.37;;
7324;SDS011;3703;48.016;7.802;2023-01-30T13:59:21;9.13;;;5.20;;
7324;SDS011;3703;48.016;7.802;2023-01-30T14:02:31;8.63;;;5.37;;
7324;SDS011;3703;48.016;7.802;2023-01-30T14:05:26;11.57;;;5.70;;
7324;SDS011;3703;48.016;7.802;2023-01-30T14:09:18;10.37;;;5.23;;
7324;SDS011;3703;48.016;7.802;2023-01-30T14:12:15;6.00;;;4.13;;
7324;SDS011;3703;48.016;7.802;2023-01-30T14:15:17;5.90;;;4.50;;
7324;SDS011;3703;48.016;7.802;2023-01-30T14:18:17;7.70;;;4.53;;
7324;SDS011;3703;48.016;7.802;2023-01-30T14:21:13;9.00;;;5.50;;
7324;SDS011;3703;48.016;7.802;2023-01-30T14:24:04;9.43;;;5.97;;
7324;SDS011;3703;48.016;7.802;2023-01-30T14:26:59;8.07;;;4.40;;
7324;SDS011;3703;48.016;7.802;2023-01-30T14:33:31;7.63;;;4.27;;
7324;SDS011;3703;48.016;7.802;2023-01-30T14:36:32;9.20;;;5.50;;
7324;SDS011;3703;48.016;7.802;2023-01-30T14:39:37;7.17;;;4.57;;
7324;SDS011;3703;48.016;7.802;2023-01-30T14:42:26;9.67;;;5.20;;
7324;SDS011;3703;48.016;7.802;2023-01-30T14:45:16;6.73;;;4.20;;
7324;SDS011;3703;48.016;7.802;2023-01-30T14:48:28;6.87;;;4.23;;
7324;SDS011;3703;48.016;7.802;2023-01-30T14:51:20;7.30;;;4.23;;
7324;SDS011;3703;48.016;7.802;2023-01-30T14:54:19;5.63;;;3.87;;
7324;SDS011;3703;48.016;7.802;2023-01-30T14:57:16;4.83;;;3.47;;
7324;SDS011;3703;48.016;7.802;2023-01-30T15:00:14;5.33;;;3.40;;
7324;SDS011;3703;48.016;7.802;2023-01-30T15:03:06;8.47;;;4.93;;
7324;SDS011;3703;48.016;7.802;2023-01-30T15:06:02;9.80;;;5.30;;
7324;SDS011;3703;48.016;7.802;2023-01-30T15:08:52;7.47;;;4.43;;
7324;SDS011;3703;48.016;7.802;2023-01-30T15:11:41;9.07;;;5.33;;
7324;SDS011;3703;48.016;7.802;2023-01-30T15:14:36;11.43;;;6.37;;
7324;SDS011;3703;48.016;7.802;2023-01-30T15:17:35;9.43;;;6.70;;
7324;SDS011;3703;48.016;7.802;2023-01-30T15:20:37;5.57;;;4.07;;
7324;SDS011;3703;48.016;7.802;2023-01-30T15:23:42;6.10;;;4.93;;
7324;SDS011;3703;48.016;7.802;2023-01-30T15:26:47;6.93;;;5.30;;
7324;SDS011;3703;48.016;7.802;2023-01-30T15:29:46;14.73;;;5.03;;
7324;SDS011;3703;48.016;7.802;2023-01-30T15:33:14;8.30;;;5.40;;
7324;SDS011;3703;48.016;7.802;2023-01-30T15:36:10;6.03;;;3.50;;
7324;SDS011;3703;48.016;7.802;2023-01-30T15:39:05;7.77;;;4.33;;
7324;SDS011;3703;48.016;7.802;2023-01-30T15:42:05;7.17;;;4.73;;
7324;SDS011;3703;48.016;7.802;2023-01-30T15:45:00;8.07;;;4.97;;
7324;SDS011;3703;48.016;7.802;2023-01-30T15:48:00;7.80;;;4.97;;
7324;SDS011;3703;48.016;7.802;2023-01-30T15:51:02;8.20;;;4.60;;
7324;SDS011;3703;48.016;7.802;2023-01-30T15:53:50;9.60;;;4.73;;
7324;SDS011;3703;48.016;7.802;2023-01-30T15:56:38;6.13;;;4.30;;
7324;SDS011;3703;48.016;7.802;2023-01-30T15:59:29;8.97;;;5.13;;
7324;SDS011;3703;48.016;7.802;2023-01-30T16:02:22;6.10;;;3.77;;
7324;SDS011;3703;48.016;7.802;2023-01-30T16:05:16;7.07;;;4.87;;
7324;SDS011;3703;48.016;7.802;2023-01-30T16:08:09;5.93;;;4.30;;
7324;SDS011;3703;48.016;7.802;2023-01-30T16:11:05;4.90;;;3.43;;
7324;SDS011;3703;48.016;7.802;2023-01-30T16:13:53;6.73;;;4.10;;
7324;SDS011;3703;48.016;7.802;2023-01-30T16:16:43;7.30;;;4.67;;
7324;SDS011;3703;48.016;7.802;2023-01-30T16:19:37;6.37;;;4.33;;
7324;SDS011;3703;48.016;7.802;2023-01-30T16:22:26;6.17;;;3.90;;
7324;SDS011;3703;48.016;7.802;2023-01-30T16:25:19;8.17;;;4.07;;
7324;SDS011;3703;48.016;7.802;2023-01-30T16:28:10;8.43;;;4.57;;
7324;SDS011;3703;48.016;7.802;2023-01-30T16:30:59;7.30;;;4.40;;
7324;SDS011;3703;48.016;7.802;2023-01-30T16:33:50;9.97;;;5.20;;
7324;SDS011;3703;48.016;7.802;2023-01-30T16:36:38;6.37;;;4.13;;
7324;SDS011;3703;48.016;7.802;2023-01-30T16:39:28;6.40;;;4.17;;
7324;SDS011;3703;48.016;7.802;2023-01-30T16:42:21;4.80;;;4.03;;
7324;SDS011;3703;48.016;7.802;2023-01-30T16:49:12;6.77;;;4.10;;
7324;SDS011;3703;48.016;7.802;2023-01-30T16:52:11;6.50;;;4.63;;
7324;SDS011;3703;48.016;7.802;2023-01-30T16:55:05;8.17;;;4.67;;
7324;SDS011;3703;48.016;7.802;2023-01-30T16:58:02;5.43;;;3.93;;
7324;SDS011;3703;48.016;7.802;2023-01-30T17:00:58;7.53;;;4.37;;
7324;SDS011;3703;48.016;7.802;2023-01-30T17:03:48;8.33;;;5.33;;
7324;SDS011;3703;48.016;7.802;2023-01-30T17:06:47;4.13;;;3.53;;
7324;SDS011;3703;48.016;7.802;2023-01-30T17:09:41;10.60;;;5.27;;
7324;SDS011;3703;48.016;7.802;2023-01-30T17:12:43;6.40;;;4.20;;
7324;SDS011;3703;48.016;7.802;2023-01-30T17:15:34;5.23;;;2.77;;
7324;SDS011;3703;48.016;7.802;2023-01-30T17:18:22;7.80;;;4.10;;
7324;SDS011;3703;48.016;7.802;2023-01-30T17:21:10;7.13;;;4.80;;
7324;SDS011;3703;48.016;7.802;2023-01-30T17:24:02;7.20;;;4.20;;
7324;SDS011;3703;48.016;7.802;2023-01-30T17:26:52;8.20;;;5.20;;
7324;SDS011;3703;48.016;7.802;2023-01-30T17:29:44;11.97;;;6.60;;
7324;SDS011;3703;48.016;7.802;2023-01-30T17:32:33;6.80;;;4.40;;
7324;SDS011;3703;48.016;7.802;2023-01-30T17:35:21;5.03;;;3.70;;
7324;SDS011;3703;48.016;7.802;2023-01-30T17:38:11;5.80;;;4.20;;
7324;SDS011;3703;48.016;7.802;2023-01-30T17:41:01;5.13;;;3.33;;
7324;SDS011;3703;48.016;7.802;2023-01-30T17:43:52;5.30;;;4.00;;
7324;SDS011;3703;48.016;7.802;2023-01-30T17:46:41;6.43;;;4.90;;
7324;SDS011;3703;48.016;7.802;2023-01-30T17:49:30;7.03;;;4.23;;
7324;SDS011;3703;48.016;7.802;2023-01-30T17:52:18;4.93;;;2.87;;
7324;SDS011;3703;48.016;7.802;2023-01-30T17:55:08;4.17;;;2.70;;
7324;SDS011;3703;48.016;7.802;2023-01-30T17:58:00;4.63;;;3.50;;
7324;SDS011;3703;48.016;7.802;2023-01-30T18:00:47;4.60;;;3.07;;
7324;SDS011;3703;48.016;7.802;2023-01-30T18:03:37;5.80;;;3.20;;
7324;SDS011;3703;48.016;7.802;2023-01-30T18:06:25;4.80;;;3.47;;
7324;SDS011;3703;48.016;7.802;2023-01-30T18:09:15;3.83;;;2.33;;
7324;SDS011;3703;48.016;7.802;2023-01-30T18:12:04;5.73;;;2.30;;
7324;SDS011;3703;48.016;7.802;2023-01-30T18:14:53;3.73;;;2.80;;
7324;SDS011;3703;48.016;7.802;2023-01-30T18:17:44;4.30;;;3.33;;
7324;SDS011;3703;48.016;7.802;2023-01-30T18:20:34;6.93;;;4.30;;
7324;SDS011;3703;48.016;7.802;2023-01-30T18:23:22;6.17;;;4.20;;
7324;SDS011;3703;48.016;7.802;2023-01-30T18:26:10;2.93;;;2.50;;
7324;SDS011;3703;48.016;7.802;2023-01-30T18:28:59;4.10;;;2.57;;
7324;SDS011;3703;48.016;7.802;2023-01-30T18:31:48;3.70;;;2.57;;
7324;SDS011;3703;48.016;7.802;2023-01-30T18:34:39;4.70;;;3.03;;
7324;SDS011;3703;48.016;7.802;2023-01-30T18:37:28;3.67;;;2.93;;
7324;SDS011;3703;48.016;7.802;2023-01-30T18:40:18;4.40;;;3.37;;
7324;SDS011;3703;48.016;7.802;2023-01-30T18:43:06;4.67;;;3.20;;
7324;SDS011;3703;48.016;7.802;2023-01-30T18:46:00;5.17;;;3.50;;
7324;SDS011;3703;48.016;7.802;2023-01-30T18:48:50;2.73;;;2.43;;
7324;SDS011;3703;48.016;7.802;2023-01-30T18:51:37;5.67;;;4.20;;
7324;SDS011;3703;48.016;7.802;2023-01-30T18:54:25;3.47;;;2.50;;
7324;SDS011;3703;48.016;7.802;2023-01-30T18:57:13;5.43;;;3.53;;